sensor_id;sensor_type;location;lat;lon;timestamp;P1;durP1;ratioP1;P2;durP2;ratioP2
35245;SDS011;21379;50.962;6.960;2023-12-14T00:01:27;24.98;;;11.52;;
35245;SDS011;21379;50.962;6.960;2023-12-14T00:03:55;23.80;;;11.38;;
35245;SDS011;21379;50.962;6.960;2023-12-14T00:16:08;23.75;;;11.15;;
35245;SDS011;21379;50.962;6.960;2023-12-14T00:18:35;24.10;;;12.27;;
35245;SDS011;21379;50.962;6.960;2023-12-14T00:21:04;24.42;;;12.68;;
35245;SDS011;21379;50.962;6.960;2023-12-14T00:23:31;29.80;;;13.82;;
35245;SDS011;21379;50.962;6.960;2023-12-14T00:25:57;31.40;;;14.27;;
35245;SDS011;21379;50.962;6.960;2023-12-14T00:28:24;28.30;;;13.73;;
35245;SDS011;21379;50.962;6.960;2023-12-14T00:30:51;33.45;;;14.73;;
35245;SDS011;21379;50.962;6.960;2023-12-14T00:33:17;28.85;;;14.20;;
35245;SDS011;21379;50.962;6.960;2023-12-14T00:35:44;32.00;;;14.05;;
35245;SDS011;21379;50.962;6.960;2023-12-14T00:38:12;32.50;;;16.08;;
35245;SDS011;21379;50.962;6.960;2023-12-14T00:40:39;36.80;;;15.77;;
35245;SDS011;21379;50.962;6.960;2023-12-14T00:43:06;30.30;;;15.10;;
35245;SDS011;21379;50.962;6.960;2023-12-14T00:45:32;36.40;;;15.73;;
35245;SDS011;21379;50.962;6.960;2023-12-14T00:47:59;42.88;;;15.80;;
35245;SDS011;21379;50.962;6.960;2023-12-14T00:50:26;38.75;;;16.08;;
35245;SDS011;21379;50.962;6.960;2023-12-14T00:52:52;42.40;;;16.00;;
35245;SDS011;21379;50.962;6.960;2023-12-14T00:55:20;37.35;;;15.43;;
35245;SDS011;21379;50.962;6.960;2023-12-14T01:00:14;34.50;;;14.90;;
35245;SDS011;21379;50.962;6.960;2023-12-14T01:02:41;48.65;;;16.65;;
35245;SDS011;21379;50.962;6.960;2023-12-14T01:05:07;36.70;;;16.10;;
35245;SDS011;21379;50.962;6.960;2023-12-14T01:07:34;39.42;;;15.30;;
35245;SDS011;21379;50.962;6.960;2023-12-14T01:10:01;35.33;;;16.23;;
35245;SDS011;21379;50.962;6.960;2023-12-14T01:12:29;42.83;;;15.38;;
35245;SDS011;21379;50.962;6.960;2023-12-14T01:17:22;35.20;;;15.90;;
35245;SDS011;21379;50.962;6.960;2023-12-14T01:19:49;35.83;;;15.15;;
35245;SDS011;21379;50.962;6.960;2023-12-14T01:22:16;41.03;;;15.95;;
35245;SDS011;21379;50.962;6.960;2023-12-14T01:24:42;37.03;;;15.82;;
35245;SDS011;21379;50.962;6.960;2023-12-14T01:27:09;43.25;;;15.32;;
35245;SDS011;21379;50.962;6.960;2023-12-14T01:29:40;40.00;;;16.42;;
35245;SDS011;21379;50.962;6.960;2023-12-14T01:36:59;39.13;;;16.95;;
35245;SDS011;21379;50.962;6.960;2023-12-14T01:39:26;43.00;;;16.33;;
35245;SDS011;21379;50.962;6.960;2023-12-14T01:41:53;44.58;;;17.92;;
35245;SDS011;21379;50.962;6.960;2023-12-14T01:44:20;41.45;;;15.88;;
35245;SDS011;21379;50.962;6.960;2023-12-14T01:46:48;42.53;;;15.52;;
35245;SDS011;21379;50.962;6.960;2023-12-14T02:01:29;38.90;;;14.50;;
35245;SDS011;21379;50.962;6.960;2023-12-14T02:04:02;38.03;;;14.32;;
35245;SDS011;21379;50.962;6.960;2023-12-14T02:06:31;38.83;;;15.30;;
35245;SDS011;21379;50.962;6.960;2023-12-14T02:08:58;41.55;;;15.70;;
35245;SDS011;21379;50.962;6.960;2023-12-14T02:11:25;40.72;;;14.23;;
35245;SDS011;21379;50.962;6.960;2023-12-14T02:13:51;39.75;;;16.58;;
35245;SDS011;21379;50.962;6.960;2023-12-14T02:16:18;39.00;;;15.43;;
35245;SDS011;21379;50.962;6.960;2023-12-14T02:18:45;45.10;;;17.75;;
35245;SDS011;21379;50.962;6.960;2023-12-14T02:21:12;40.80;;;16.52;;
35245;SDS011;21379;50.962;6.960;2023-12-14T02:23:43;44.78;;;15.88;;
35245;SDS011;21379;50.962;6.960;2023-12-14T02:26:10;42.67;;;16.10;;
35245;SDS011;21379;50.962;6.960;2023-12-14T02:28:37;42.92;;;16.23;;
35245;SDS011;21379;50.962;6.960;2023-12-14T02:31:03;41.50;;;16.83;;
35245;SDS011;21379;50.962;6.960;2023-12-14T02:33:30;43.83;;;14.73;;
35245;SDS011;21379;50.962;6.960;2023-12-14T02:35:57;39.53;;;16.58;;
35245;SDS011;21379;50.962;6.960;2023-12-14T02:38:23;47.42;;;17.42;;
35245;SDS011;21379;50.962;6.960;2023-12-14T02:40:51;45.08;;;17.35;;
35245;SDS011;21379;50.962;6.960;2023-12-14T02:45:45;43.72;;;15.93;;
35245;SDS011;21379;50.962;6.960;2023-12-14T02:48:11;34.63;;;11.68;;
35245;SDS011;21379;50.962;6.960;2023-12-14T02:50:38;41.90;;;14.40;;
35245;SDS011;21379;50.962;6.960;2023-12-14T02:53:05;42.60;;;15.57;;
35245;SDS011;21379;50.962;6.960;2023-12-14T02:55:32;36.50;;;12.70;;
35245;SDS011;21379;50.962;6.960;2023-12-14T02:58:00;43.95;;;14.68;;
35245;SDS011;21379;50.962;6.960;2023-12-14T03:12:39;34.67;;;12.40;;
35245;SDS011;21379;50.962;6.960;2023-12-14T03:15:07;32.17;;;12.88;;
35245;SDS011;21379;50.962;6.960;2023-12-14T03:17:34;34.03;;;12.52;;
35245;SDS011;21379;50.962;6.960;2023-12-14T03:20:01;34.58;;;14.05;;
35245;SDS011;21379;50.962;6.960;2023-12-14T03:22:30;30.05;;;12.10;;
35245;SDS011;21379;50.962;6.960;2023-12-14T03:24:57;32.55;;;12.38;;
35245;SDS011;21379;50.962;6.960;2023-12-14T03:27:24;39.40;;;15.60;;
35245;SDS011;21379;50.962;6.960;2023-12-14T03:29:50;23.00;;;9.85;;
35245;SDS011;21379;50.962;6.960;2023-12-14T03:32:19;35.65;;;14.65;;
35245;SDS011;21379;50.962;6.960;2023-12-14T03:37:12;25.48;;;12.18;;
35245;SDS011;21379;50.962;6.960;2023-12-14T03:39:39;35.97;;;13.25;;
35245;SDS011;21379;50.962;6.960;2023-12-14T03:42:05;38.30;;;14.82;;
35245;SDS011;21379;50.962;6.960;2023-12-14T03:44:32;39.13;;;15.45;;
35245;SDS011;21379;50.962;6.960;2023-12-14T03:46:59;40.28;;;15.73;;
35245;SDS011;21379;50.962;6.960;2023-12-14T03:49:27;43.40;;;16.65;;
35245;SDS011;21379;50.962;6.960;2023-12-14T03:56:47;25.35;;;11.60;;
35245;SDS011;21379;50.962;6.960;2023-12-14T03:59:13;26.25;;;11.35;;
35245;SDS011;21379;50.962;6.960;2023-12-14T04:01:40;16.60;;;8.68;;
35245;SDS011;21379;50.962;6.960;2023-12-14T04:04:07;20.90;;;10.25;;
35245;SDS011;21379;50.962;6.960;2023-12-14T04:06:35;23.52;;;11.38;;
35245;SDS011;21379;50.962;6.960;2023-12-14T04:09:02;23.55;;;12.13;;
35245;SDS011;21379;50.962;6.960;2023-12-14T04:11:29;25.13;;;12.10;;
35245;SDS011;21379;50.962;6.960;2023-12-14T04:13:55;26.20;;;12.80;;
35245;SDS011;21379;50.962;6.960;2023-12-14T04:16:22;13.88;;;7.40;;
35245;SDS011;21379;50.962;6.960;2023-12-14T04:18:49;21.30;;;10.23;;
35245;SDS011;21379;50.962;6.960;2023-12-14T04:21:15;24.42;;;11.15;;
35245;SDS011;21379;50.962;6.960;2023-12-14T04:23:43;23.80;;;10.65;;
35245;SDS011;21379;50.962;6.960;2023-12-14T04:26:10;23.42;;;11.02;;
35245;SDS011;21379;50.962;6.960;2023-12-14T04:28:38;23.27;;;10.30;;
35245;SDS011;21379;50.962;6.960;2023-12-14T04:31:05;22.70;;;10.85;;
35245;SDS011;21379;50.962;6.960;2023-12-14T04:33:32;22.92;;;10.48;;
35245;SDS011;21379;50.962;6.960;2023-12-14T04:35:58;25.20;;;11.55;;
35245;SDS011;21379;50.962;6.960;2023-12-14T04:38:25;22.90;;;10.77;;
35245;SDS011;21379;50.962;6.960;2023-12-14T04:40:53;26.63;;;12.00;;
35245;SDS011;21379;50.962;6.960;2023-12-14T04:48:13;26.30;;;9.85;;
35245;SDS011;21379;50.962;6.960;2023-12-14T04:50:39;22.48;;;9.43;;
35245;SDS011;21379;50.962;6.960;2023-12-14T04:53:06;32.28;;;12.57;;
35245;SDS011;21379;50.962;6.960;2023-12-14T04:55:33;34.22;;;12.77;;
35245;SDS011;21379;50.962;6.960;2023-12-14T04:58:01;36.58;;;14.45;;
35245;SDS011;21379;50.962;6.960;2023-12-14T05:00:28;41.22;;;15.20;;
35245;SDS011;21379;50.962;6.960;2023-12-14T05:02:55;32.13;;;12.68;;
35245;SDS011;21379;50.962;6.960;2023-12-14T05:05:22;30.50;;;12.65;;
35245;SDS011;21379;50.962;6.960;2023-12-14T05:07:49;35.08;;;13.07;;
35245;SDS011;21379;50.962;6.960;2023-12-14T05:10:15;32.67;;;12.48;;
35245;SDS011;21379;50.962;6.960;2023-12-14T05:12:42;34.30;;;12.90;;
35245;SDS011;21379;50.962;6.960;2023-12-14T05:15:10;35.97;;;14.18;;
35245;SDS011;21379;50.962;6.960;2023-12-14T05:17:37;35.15;;;14.63;;
35245;SDS011;21379;50.962;6.960;2023-12-14T05:20:04;39.33;;;14.00;;
35245;SDS011;21379;50.962;6.960;2023-12-14T05:22:33;37.95;;;13.90;;
35245;SDS011;21379;50.962;6.960;2023-12-14T05:25:00;38.67;;;14.75;;
35245;SDS011;21379;50.962;6.960;2023-12-14T05:27:26;33.75;;;12.68;;
35245;SDS011;21379;50.962;6.960;2023-12-14T05:29:53;37.65;;;14.45;;
35245;SDS011;21379;50.962;6.960;2023-12-14T05:32:21;29.77;;;12.07;;
35245;SDS011;21379;50.962;6.960;2023-12-14T05:34:48;29.20;;;12.73;;
35245;SDS011;21379;50.962;6.960;2023-12-14T05:37:14;24.63;;;10.25;;
35245;SDS011;21379;50.962;6.960;2023-12-14T05:39:41;28.40;;;12.35;;
35245;SDS011;21379;50.962;6.960;2023-12-14T05:42:08;32.72;;;13.18;;
35245;SDS011;21379;50.962;6.960;2023-12-14T05:44:35;29.75;;;11.80;;
35245;SDS011;21379;50.962;6.960;2023-12-14T05:47:01;24.58;;;10.27;;
35245;SDS011;21379;50.962;6.960;2023-12-14T05:49:30;34.72;;;12.27;;
35245;SDS011;21379;50.962;6.960;2023-12-14T05:51:58;31.17;;;12.18;;
35245;SDS011;21379;50.962;6.960;2023-12-14T05:54:25;31.33;;;11.98;;
35245;SDS011;21379;50.962;6.960;2023-12-14T05:56:51;33.92;;;12.77;;
35245;SDS011;21379;50.962;6.960;2023-12-14T05:59:18;30.75;;;11.25;;
35245;SDS011;21379;50.962;6.960;2023-12-14T06:01:45;34.53;;;12.15;;
35245;SDS011;21379;50.962;6.960;2023-12-14T06:04:12;41.92;;;14.60;;
35245;SDS011;21379;50.962;6.960;2023-12-14T06:06:40;33.63;;;11.45;;
35245;SDS011;21379;50.962;6.960;2023-12-14T06:14:01;30.45;;;10.90;;
35245;SDS011;21379;50.962;6.960;2023-12-14T06:16:28;33.47;;;12.57;;
35245;SDS011;21379;50.962;6.960;2023-12-14T06:18:54;38.55;;;14.02;;
35245;SDS011;21379;50.962;6.960;2023-12-14T06:21:21;34.40;;;13.15;;
35245;SDS011;21379;50.962;6.960;2023-12-14T06:23:52;43.05;;;14.77;;
35245;SDS011;21379;50.962;6.960;2023-12-14T06:26:19;41.92;;;15.13;;
35245;SDS011;21379;50.962;6.960;2023-12-14T06:28:46;39.70;;;14.85;;
35245;SDS011;21379;50.962;6.960;2023-12-14T06:31:12;32.97;;;11.52;;
35245;SDS011;21379;50.962;6.960;2023-12-14T06:33:40;31.70;;;12.00;;
35245;SDS011;21379;50.962;6.960;2023-12-14T06:36:07;28.30;;;11.48;;
35245;SDS011;21379;50.962;6.960;2023-12-14T06:38:33;31.20;;;11.13;;
35245;SDS011;21379;50.962;6.960;2023-12-14T06:41:01;34.67;;;12.85;;
35245;SDS011;21379;50.962;6.960;2023-12-14T06:43:28;32.65;;;11.95;;
35245;SDS011;21379;50.962;6.960;2023-12-14T06:45:55;36.85;;;13.23;;
35245;SDS011;21379;50.962;6.960;2023-12-14T06:48:22;31.52;;;11.48;;
35245;SDS011;21379;50.962;6.960;2023-12-14T06:50:49;28.25;;;11.23;;
35245;SDS011;21379;50.962;6.960;2023-12-14T06:53:15;41.28;;;15.20;;
35245;SDS011;21379;50.962;6.960;2023-12-14T06:55:42;37.42;;;13.13;;
35245;SDS011;21379;50.962;6.960;2023-12-14T06:58:10;47.05;;;16.42;;
35245;SDS011;21379;50.962;6.960;2023-12-14T07:03:03;39.30;;;13.05;;
35245;SDS011;21379;50.962;6.960;2023-12-14T07:05:30;38.20;;;14.75;;
35245;SDS011;21379;50.962;6.960;2023-12-14T07:07:57;41.65;;;14.93;;
35245;SDS011;21379;50.962;6.960;2023-12-14T07:10:24;40.03;;;14.85;;
35245;SDS011;21379;50.962;6.960;2023-12-14T07:12:51;55.63;;;19.55;;
35245;SDS011;21379;50.962;6.960;2023-12-14T07:15:19;50.85;;;17.63;;
35245;SDS011;21379;50.962;6.960;2023-12-14T07:17:45;61.55;;;19.08;;
35245;SDS011;21379;50.962;6.960;2023-12-14T07:20:12;52.88;;;20.05;;
35245;SDS011;21379;50.962;6.960;2023-12-14T07:22:39;54.47;;;18.77;;
35245;SDS011;21379;50.962;6.960;2023-12-14T07:25:05;49.05;;;19.45;;
35245;SDS011;21379;50.962;6.960;2023-12-14T07:27:32;59.83;;;19.38;;
35245;SDS011;21379;50.962;6.960;2023-12-14T07:29:58;56.33;;;17.60;;
35245;SDS011;21379;50.962;6.960;2023-12-14T07:32:26;61.10;;;18.23;;
35245;SDS011;21379;50.962;6.960;2023-12-14T07:34:53;51.95;;;17.73;;
35245;SDS011;21379;50.962;6.960;2023-12-14T07:37:20;59.40;;;17.25;;
35245;SDS011;21379;50.962;6.960;2023-12-14T07:39:46;51.22;;;15.05;;
35245;SDS011;21379;50.962;6.960;2023-12-14T07:42:13;49.05;;;15.82;;
35245;SDS011;21379;50.962;6.960;2023-12-14T07:44:44;54.80;;;16.27;;
35245;SDS011;21379;50.962;6.960;2023-12-14T07:47:11;51.97;;;16.98;;
35245;SDS011;21379;50.962;6.960;2023-12-14T07:49:40;48.53;;;15.82;;
35245;SDS011;21379;50.962;6.960;2023-12-14T07:54:34;47.08;;;14.88;;
35245;SDS011;21379;50.962;6.960;2023-12-14T07:57:01;45.13;;;13.63;;
35245;SDS011;21379;50.962;6.960;2023-12-14T07:59:28;46.38;;;14.15;;
35245;SDS011;21379;50.962;6.960;2023-12-14T08:01:55;49.53;;;14.40;;
35245;SDS011;21379;50.962;6.960;2023-12-14T08:04:22;39.35;;;13.65;;
35245;SDS011;21379;50.962;6.960;2023-12-14T08:06:50;44.08;;;16.20;;
35245;SDS011;21379;50.962;6.960;2023-12-14T08:09:16;42.38;;;15.05;;
35245;SDS011;21379;50.962;6.960;2023-12-14T08:11:44;42.88;;;12.77;;
35245;SDS011;21379;50.962;6.960;2023-12-14T08:14:10;37.85;;;11.70;;
35245;SDS011;21379;50.962;6.960;2023-12-14T08:16:37;41.95;;;13.80;;
35245;SDS011;21379;50.962;6.960;2023-12-14T08:19:04;40.40;;;13.23;;
35245;SDS011;21379;50.962;6.960;2023-12-14T08:21:30;40.63;;;12.65;;
35245;SDS011;21379;50.962;6.960;2023-12-14T08:23:58;39.65;;;14.23;;
35245;SDS011;21379;50.962;6.960;2023-12-14T08:26:25;37.28;;;12.65;;
35245;SDS011;21379;50.962;6.960;2023-12-14T08:28:52;31.70;;;12.02;;
35245;SDS011;21379;50.962;6.960;2023-12-14T08:31:18;33.65;;;12.63;;
35245;SDS011;21379;50.962;6.960;2023-12-14T08:33:45;24.42;;;9.23;;
35245;SDS011;21379;50.962;6.960;2023-12-14T08:36:14;28.00;;;11.07;;
35245;SDS011;21379;50.962;6.960;2023-12-14T08:38:41;26.02;;;10.73;;
35245;SDS011;21379;50.962;6.960;2023-12-14T08:41:09;30.38;;;10.38;;
35245;SDS011;21379;50.962;6.960;2023-12-14T08:43:38;34.15;;;11.68;;
35245;SDS011;21379;50.962;6.960;2023-12-14T08:46:05;26.27;;;9.73;;
35245;SDS011;21379;50.962;6.960;2023-12-14T08:48:32;31.40;;;9.45;;
35245;SDS011;21379;50.962;6.960;2023-12-14T08:51:00;24.80;;;9.82;;
35245;SDS011;21379;50.962;6.960;2023-12-14T08:53:27;31.30;;;9.02;;
35245;SDS011;21379;50.962;6.960;2023-12-14T08:55:55;30.98;;;9.70;;
35245;SDS011;21379;50.962;6.960;2023-12-14T08:58:22;25.00;;;10.07;;
35245;SDS011;21379;50.962;6.960;2023-12-14T09:00:48;22.10;;;8.60;;
35245;SDS011;21379;50.962;6.960;2023-12-14T09:03:17;28.85;;;10.63;;
35245;SDS011;21379;50.962;6.960;2023-12-14T09:05:44;24.63;;;9.63;;
35245;SDS011;21379;50.962;6.960;2023-12-14T09:08:11;25.75;;;10.57;;
35245;SDS011;21379;50.962;6.960;2023-12-14T09:10:38;27.45;;;9.73;;
35245;SDS011;21379;50.962;6.960;2023-12-14T09:13:05;28.10;;;9.20;;
35245;SDS011;21379;50.962;6.960;2023-12-14T09:15:33;30.77;;;10.38;;
35245;SDS011;21379;50.962;6.960;2023-12-14T09:18:00;35.65;;;11.43;;
35245;SDS011;21379;50.962;6.960;2023-12-14T09:20:26;30.95;;;11.07;;
35245;SDS011;21379;50.962;6.960;2023-12-14T09:22:53;19.15;;;7.95;;
35245;SDS011;21379;50.962;6.960;2023-12-14T09:25:20;32.55;;;11.32;;
35245;SDS011;21379;50.962;6.960;2023-12-14T09:27:46;32.40;;;11.77;;
35245;SDS011;21379;50.962;6.960;2023-12-14T09:30:13;28.88;;;9.98;;
35245;SDS011;21379;50.962;6.960;2023-12-14T09:32:44;34.28;;;10.75;;
35245;SDS011;21379;50.962;6.960;2023-12-14T09:35:10;29.52;;;11.80;;
35245;SDS011;21379;50.962;6.960;2023-12-14T09:37:37;30.42;;;10.82;;
35245;SDS011;21379;50.962;6.960;2023-12-14T09:40:04;25.08;;;9.95;;
35245;SDS011;21379;50.962;6.960;2023-12-14T09:42:35;30.90;;;11.00;;
35245;SDS011;21379;50.962;6.960;2023-12-14T09:45:04;18.73;;;7.72;;
35245;SDS011;21379;50.962;6.960;2023-12-14T09:47:33;29.02;;;10.13;;
35245;SDS011;21379;50.962;6.960;2023-12-14T09:50:01;26.17;;;9.50;;
35245;SDS011;21379;50.962;6.960;2023-12-14T09:52:29;33.33;;;11.32;;
35245;SDS011;21379;50.962;6.960;2023-12-14T09:54:56;30.83;;;12.07;;
35245;SDS011;21379;50.962;6.960;2023-12-14T09:57:22;29.33;;;11.23;;
35245;SDS011;21379;50.962;6.960;2023-12-14T10:02:17;27.10;;;12.48;;
35245;SDS011;21379;50.962;6.960;2023-12-14T10:04:45;35.30;;;12.60;;
35245;SDS011;21379;50.962;6.960;2023-12-14T10:07:13;42.65;;;12.63;;
35245;SDS011;21379;50.962;6.960;2023-12-14T10:14:34;40.63;;;12.65;;
35245;SDS011;21379;50.962;6.960;2023-12-14T10:17:13;44.95;;;15.15;;
35245;SDS011;21379;50.962;6.960;2023-12-14T10:19:42;39.17;;;14.07;;
35245;SDS011;21379;50.962;6.960;2023-12-14T10:22:08;46.90;;;15.38;;
35245;SDS011;21379;50.962;6.960;2023-12-14T10:24:36;42.72;;;14.27;;
35245;SDS011;21379;50.962;6.960;2023-12-14T10:27:04;44.80;;;14.20;;
35245;SDS011;21379;50.962;6.960;2023-12-14T10:29:32;46.58;;;14.55;;
35245;SDS011;21379;50.962;6.960;2023-12-14T10:31:59;45.50;;;15.80;;
35245;SDS011;21379;50.962;6.960;2023-12-14T10:34:27;44.85;;;15.38;;
35245;SDS011;21379;50.962;6.960;2023-12-14T10:36:54;50.78;;;17.73;;
35245;SDS011;21379;50.962;6.960;2023-12-14T10:39:20;48.42;;;15.20;;
35245;SDS011;21379;50.962;6.960;2023-12-14T10:41:48;56.05;;;16.15;;
35245;SDS011;21379;50.962;6.960;2023-12-14T10:44:16;53.33;;;17.23;;
35245;SDS011;21379;50.962;6.960;2023-12-14T10:46:44;50.03;;;17.50;;
35245;SDS011;21379;50.962;6.960;2023-12-14T10:49:12;56.22;;;17.38;;
35245;SDS011;21379;50.962;6.960;2023-12-14T10:51:39;49.17;;;15.25;;
35245;SDS011;21379;50.962;6.960;2023-12-14T10:54:07;51.13;;;17.70;;
35245;SDS011;21379;50.962;6.960;2023-12-14T10:56:34;50.60;;;17.35;;
35245;SDS011;21379;50.962;6.960;2023-12-14T10:59:02;47.75;;;16.23;;
35245;SDS011;21379;50.962;6.960;2023-12-14T11:01:30;42.50;;;15.15;;
35245;SDS011;21379;50.962;6.960;2023-12-14T11:04:00;49.97;;;16.13;;
35245;SDS011;21379;50.962;6.960;2023-12-14T11:06:32;52.50;;;17.52;;
35245;SDS011;21379;50.962;6.960;2023-12-14T11:08:59;46.58;;;17.50;;
35245;SDS011;21379;50.962;6.960;2023-12-14T11:11:40;44.05;;;14.55;;
35245;SDS011;21379;50.962;6.960;2023-12-14T11:14:11;36.00;;;13.63;;
35245;SDS011;21379;50.962;6.960;2023-12-14T11:16:39;36.20;;;14.70;;
35245;SDS011;21379;50.962;6.960;2023-12-14T11:19:26;40.45;;;14.40;;
35245;SDS011;21379;50.962;6.960;2023-12-14T11:24:52;39.75;;;14.57;;
35245;SDS011;21379;50.962;6.960;2023-12-14T11:27:20;36.25;;;13.50;;
35245;SDS011;21379;50.962;6.960;2023-12-14T11:29:53;38.33;;;13.88;;
35245;SDS011;21379;50.962;6.960;2023-12-14T11:32:20;38.80;;;12.70;;
35245;SDS011;21379;50.962;6.960;2023-12-14T11:34:47;33.42;;;13.38;;
35245;SDS011;21379;50.962;6.960;2023-12-14T11:37:14;34.15;;;12.77;;
35245;SDS011;21379;50.962;6.960;2023-12-14T11:39:40;31.45;;;11.35;;
35245;SDS011;21379;50.962;6.960;2023-12-14T11:42:09;33.58;;;11.95;;
35245;SDS011;21379;50.962;6.960;2023-12-14T11:44:36;30.45;;;10.90;;
35245;SDS011;21379;50.962;6.960;2023-12-14T11:47:04;38.15;;;14.00;;
35245;SDS011;21379;50.962;6.960;2023-12-14T11:49:31;34.10;;;13.65;;
35245;SDS011;21379;50.962;6.960;2023-12-14T11:52:01;37.13;;;14.57;;
35245;SDS011;21379;50.962;6.960;2023-12-14T11:54:28;33.35;;;12.60;;
35245;SDS011;21379;50.962;6.960;2023-12-14T11:56:55;35.25;;;15.05;;
35245;SDS011;21379;50.962;6.960;2023-12-14T11:59:21;32.10;;;11.93;;
35245;SDS011;21379;50.962;6.960;2023-12-14T12:01:55;33.38;;;12.85;;
35245;SDS011;21379;50.962;6.960;2023-12-14T12:04:24;31.10;;;11.38;;
35245;SDS011;21379;50.962;6.960;2023-12-14T12:06:58;29.85;;;11.65;;
35245;SDS011;21379;50.962;6.960;2023-12-14T12:09:36;34.75;;;12.43;;
35245;SDS011;21379;50.962;6.960;2023-12-14T12:12:06;34.08;;;13.02;;
35245;SDS011;21379;50.962;6.960;2023-12-14T12:14:33;32.13;;;12.02;;
35245;SDS011;21379;50.962;6.960;2023-12-14T12:17:00;32.47;;;12.57;;
35245;SDS011;21379;50.962;6.960;2023-12-14T12:19:28;35.55;;;13.70;;
35245;SDS011;21379;50.962;6.960;2023-12-14T12:24:21;31.10;;;11.48;;
35245;SDS011;21379;50.962;6.960;2023-12-14T12:26:48;37.13;;;13.68;;
35245;SDS011;21379;50.962;6.960;2023-12-14T12:29:15;30.92;;;11.57;;
35245;SDS011;21379;50.962;6.960;2023-12-14T12:31:42;34.00;;;13.35;;
35245;SDS011;21379;50.962;6.960;2023-12-14T12:34:12;35.75;;;13.50;;
35245;SDS011;21379;50.962;6.960;2023-12-14T12:36:41;29.95;;;10.77;;
35245;SDS011;21379;50.962;6.960;2023-12-14T12:39:07;25.13;;;9.70;;
35245;SDS011;21379;50.962;6.960;2023-12-14T12:41:34;33.15;;;13.65;;
35245;SDS011;21379;50.962;6.960;2023-12-14T12:44:02;34.83;;;13.40;;
35245;SDS011;21379;50.962;6.960;2023-12-14T12:46:31;37.58;;;13.40;;
35245;SDS011;21379;50.962;6.960;2023-12-14T12:48:58;30.75;;;12.35;;
35245;SDS011;21379;50.962;6.960;2023-12-14T12:51:26;33.80;;;12.90;;
35245;SDS011;21379;50.962;6.960;2023-12-14T12:53:55;30.98;;;11.07;;
35245;SDS011;21379;50.962;6.960;2023-12-14T12:56:22;30.38;;;12.18;;
35245;SDS011;21379;50.962;6.960;2023-12-14T12:58:49;30.27;;;11.52;;
35245;SDS011;21379;50.962;6.960;2023-12-14T13:01:17;28.38;;;12.77;;
35245;SDS011;21379;50.962;6.960;2023-12-14T13:03:44;24.83;;;11.73;;
35245;SDS011;21379;50.962;6.960;2023-12-14T13:06:10;28.15;;;11.23;;
35245;SDS011;21379;50.962;6.960;2023-12-14T13:08:37;23.25;;;9.23;;
35245;SDS011;21379;50.962;6.960;2023-12-14T13:11:05;24.45;;;10.35;;
35245;SDS011;21379;50.962;6.960;2023-12-14T13:15:58;23.58;;;10.25;;
35245;SDS011;21379;50.962;6.960;2023-12-14T13:18:25;26.02;;;11.38;;
35245;SDS011;21379;50.962;6.960;2023-12-14T13:20:52;21.38;;;9.80;;
35245;SDS011;21379;50.962;6.960;2023-12-14T13:23:18;18.10;;;8.30;;
35245;SDS011;21379;50.962;6.960;2023-12-14T13:25:45;21.17;;;8.63;;
35245;SDS011;21379;50.962;6.960;2023-12-14T13:28:13;21.13;;;9.30;;
35245;SDS011;21379;50.962;6.960;2023-12-14T13:30:41;22.38;;;9.55;;
35245;SDS011;21379;50.962;6.960;2023-12-14T13:33:07;18.98;;;9.25;;
35245;SDS011;21379;50.962;6.960;2023-12-14T13:35:37;19.35;;;8.20;;
35245;SDS011;21379;50.962;6.960;2023-12-14T13:38:03;24.02;;;9.57;;
35245;SDS011;21379;50.962;6.960;2023-12-14T13:40:30;22.27;;;9.82;;
35245;SDS011;21379;50.962;6.960;2023-12-14T13:42:57;21.58;;;8.55;;
35245;SDS011;21379;50.962;6.960;2023-12-14T13:45:26;20.80;;;9.00;;
35245;SDS011;21379;50.962;6.960;2023-12-14T13:47:55;16.80;;;7.32;;
35245;SDS011;21379;50.962;6.960;2023-12-14T13:50:23;15.05;;;6.60;;
35245;SDS011;21379;50.962;6.960;2023-12-14T13:52:51;20.25;;;8.23;;
35245;SDS011;21379;50.962;6.960;2023-12-14T13:55:18;17.30;;;7.97;;
35245;SDS011;21379;50.962;6.960;2023-12-14T13:57:45;15.05;;;6.75;;
35245;SDS011;21379;50.962;6.960;2023-12-14T14:00:13;13.98;;;6.63;;
35245;SDS011;21379;50.962;6.960;2023-12-14T14:02:42;13.85;;;6.15;;
35245;SDS011;21379;50.962;6.960;2023-12-14T14:05:09;16.65;;;7.55;;
35245;SDS011;21379;50.962;6.960;2023-12-14T14:07:36;14.32;;;7.20;;
35245;SDS011;21379;50.962;6.960;2023-12-14T14:10:03;15.98;;;7.05;;
35245;SDS011;21379;50.962;6.960;2023-12-14T14:12:30;11.93;;;6.18;;
35245;SDS011;21379;50.962;6.960;2023-12-14T14:14:57;22.70;;;6.95;;
35245;SDS011;21379;50.962;6.960;2023-12-14T14:17:24;14.52;;;6.28;;
35245;SDS011;21379;50.962;6.960;2023-12-14T14:19:52;24.65;;;7.07;;
35245;SDS011;21379;50.962;6.960;2023-12-14T14:22:18;14.15;;;5.88;;
35245;SDS011;21379;50.962;6.960;2023-12-14T14:24:46;18.27;;;6.60;;
35245;SDS011;21379;50.962;6.960;2023-12-14T14:27:14;18.30;;;7.22;;
35245;SDS011;21379;50.962;6.960;2023-12-14T14:29:40;13.70;;;4.45;;
35245;SDS011;21379;50.962;6.960;2023-12-14T14:32:07;8.68;;;4.18;;
35245;SDS011;21379;50.962;6.960;2023-12-14T14:34:34;16.17;;;7.13;;
35245;SDS011;21379;50.962;6.960;2023-12-14T14:37:02;14.90;;;6.18;;
35245;SDS011;21379;50.962;6.960;2023-12-14T14:39:30;15.48;;;6.07;;
35245;SDS011;21379;50.962;6.960;2023-12-14T14:41:57;11.63;;;5.72;;
35245;SDS011;21379;50.962;6.960;2023-12-14T14:44:24;10.40;;;4.93;;
35245;SDS011;21379;50.962;6.960;2023-12-14T14:46:50;13.60;;;5.95;;
35245;SDS011;21379;50.962;6.960;2023-12-14T14:49:17;15.00;;;7.43;;
35245;SDS011;21379;50.962;6.960;2023-12-14T14:51:44;10.88;;;5.40;;
35245;SDS011;21379;50.962;6.960;2023-12-14T14:54:12;12.68;;;4.95;;
35245;SDS011;21379;50.962;6.960;2023-12-14T14:56:39;9.38;;;4.45;;
35245;SDS011;21379;50.962;6.960;2023-12-14T14:59:06;13.35;;;5.72;;
35245;SDS011;21379;50.962;6.960;2023-12-14T15:01:34;10.77;;;5.15;;
35245;SDS011;21379;50.962;6.960;2023-12-14T15:04:01;11.80;;;5.25;;
35245;SDS011;21379;50.962;6.960;2023-12-14T15:06:27;10.63;;;4.53;;
35245;SDS011;21379;50.962;6.960;2023-12-14T15:08:54;11.05;;;5.55;;
35245;SDS011;21379;50.962;6.960;2023-12-14T15:11:22;9.23;;;3.83;;
35245;SDS011;21379;50.962;6.960;2023-12-14T15:13:49;12.63;;;6.18;;
35245;SDS011;21379;50.962;6.960;2023-12-14T15:16:16;18.15;;;6.07;;
35245;SDS011;21379;50.962;6.960;2023-12-14T15:18:43;14.45;;;5.93;;
35245;SDS011;21379;50.962;6.960;2023-12-14T15:21:10;12.80;;;5.88;;
35245;SDS011;21379;50.962;6.960;2023-12-14T15:23:37;16.00;;;6.28;;
35245;SDS011;21379;50.962;6.960;2023-12-14T15:26:04;14.55;;;6.50;;
35245;SDS011;21379;50.962;6.960;2023-12-14T15:28:34;13.63;;;6.07;;
35245;SDS011;21379;50.962;6.960;2023-12-14T15:31:01;15.07;;;6.07;;
35245;SDS011;21379;50.962;6.960;2023-12-14T15:33:27;13.27;;;6.53;;
35245;SDS011;21379;50.962;6.960;2023-12-14T15:35:54;15.68;;;6.35;;
35245;SDS011;21379;50.962;6.960;2023-12-14T15:38:21;18.80;;;6.57;;
35245;SDS011;21379;50.962;6.960;2023-12-14T15:40:47;14.82;;;6.13;;
35245;SDS011;21379;50.962;6.960;2023-12-14T15:43:14;16.27;;;6.50;;
35245;SDS011;21379;50.962;6.960;2023-12-14T15:45:42;9.05;;;4.53;;
35245;SDS011;21379;50.962;6.960;2023-12-14T15:48:09;13.98;;;6.82;;
35245;SDS011;21379;50.962;6.960;2023-12-14T15:50:36;16.08;;;6.70;;